createdAt,value
2023-03-29T00:00:16.926Z,99842.38
2023-03-29T00:03:04.730Z,99846.87
2023-03-29T00:05:35.109Z,99849.02
2023-03-29T00:08:04.611Z,99849.71
2023-03-29T00:10:32.782Z,99849.62
2023-03-29T00:13:00.524Z,99854.42
2023-03-29T00:15:28.189Z,99856.75
2023-03-29T00:17:56.155Z,99859.87
2023-03-29T00:20:23.918Z,99859.48
2023-03-29T00:22:51.886Z,99863.65
2023-03-29T00:25:19.550Z,99865.42
2023-03-29T00:27:47.309Z,99867.21
2023-03-29T00:30:15.600Z,99871.36
2023-03-29T00:32:43.364Z,99872.23
2023-03-29T00:35:11.224Z,99876.46
2023-03-29T00:37:38.877Z,99877.04
2023-03-29T00:40:11.253Z,99879.93
2023-03-29T00:42:38.923Z,99872.55
2023-03-29T00:45:07.295Z,99875.77
2023-03-29T00:47:35.080Z,99876.08
2023-03-29T00:50:02.821Z,99873.30
2023-03-29T00:52:30.489Z,99869.94
2023-03-29T00:54:58.142Z,99874.16
2023-03-29T00:57:27.695Z,99873.95
2023-03-29T00:59:55.614Z,99867.92
2023-03-29T01:02:23.410Z,99868.11
2023-03-29T01:04:51.145Z,99868.17
2023-03-29T01:07:21.566Z,99871.99
2023-03-29T01:09:49.438Z,99873.26
2023-03-29T01:12:20.172Z,99876.56
2023-03-29T01:14:47.942Z,99875.40
2023-03-29T01:17:16.317Z,99873.05
2023-03-29T01:19:43.984Z,99871.44
2023-03-29T01:22:13.701Z,99870.33
2023-03-29T01:24:42.241Z,99871.89
2023-03-29T01:27:10.032Z,99868.98
2023-03-29T01:29:37.797Z,99867.82
2023-03-29T01:32:05.624Z,99864.76
2023-03-29T01:34:33.533Z,99861.61
2023-03-29T01:37:01.191Z,99859.91
2023-03-29T01:39:28.955Z,99861.67
2023-03-29T01:41:56.719Z,99861.22
2023-03-29T01:44:24.484Z,99858.91
2023-03-29T01:46:52.149Z,99857.95
2023-03-29T01:49:19.806Z,99860.20
2023-03-29T01:51:47.468Z,99859.85
2023-03-29T01:54:15.141Z,99861.30
2023-03-29T01:56:42.933Z,99863.02
2023-03-29T01:59:11.487Z,99866.39
2023-03-29T02:01:39.181Z,99865.98
2023-03-29T02:04:07.008Z,99867.05
2023-03-29T02:06:34.772Z,99868.23
2023-03-29T02:09:05.095Z,99865.96
2023-03-29T02:11:32.753Z,99872.41
2023-03-29T02:14:00.928Z,99868.42
2023-03-29T02:16:28.899Z,99866.44
2023-03-29T02:18:57.171Z,99866.91
2023-03-29T02:21:24.940Z,99869.11
2023-03-29T02:23:54.868Z,99869.52
2023-03-29T02:26:24.129Z,99868.91
2023-03-29T02:28:53.144Z,99871.17
2023-03-29T02:31:21.576Z,99867.79
2023-03-29T02:33:49.386Z,99870.26
2023-03-29T02:36:17.849Z,99871.13
2023-03-29T02:38:46.656Z,99873.96
2023-03-29T02:41:14.420Z,99875.58
2023-03-29T02:43:42.490Z,99873.98
2023-03-29T02:46:10.192Z,99872.95
2023-03-29T02:48:38.028Z,99879.13
2023-03-29T02:51:05.991Z,99876.86
2023-03-29T02:53:33.761Z,99873.66
2023-03-29T02:56:02.473Z,99875.98
2023-03-29T02:58:31.850Z,99879.66
2023-03-29T03:00:59.829Z,99878.06
2023-03-29T03:03:27.929Z,99881.16
2023-03-29T03:05:55.650Z,99877.21
2023-03-29T03:08:23.411Z,99874.97
2023-03-29T03:10:51.076Z,99879.31
2023-03-29T03:13:18.938Z,99878.63
2023-03-29T03:15:49.426Z,99879.61
2023-03-29T03:18:17.847Z,99885.77
2023-03-29T03:20:46.844Z,99883.09
2023-03-29T03:23:14.604Z,99886.56
2023-03-29T03:25:42.261Z,99884.46
2023-03-29T03:28:10.445Z,99887.98
2023-03-29T03:30:38.812Z,99892.56
2023-03-29T03:33:06.506Z,99891.16
2023-03-29T03:35:35.104Z,99888.17
2023-03-29T03:38:02.922Z,99893.45
2023-03-29T03:40:30.690Z,99898.94
2023-03-29T03:42:58.460Z,99902.71
2023-03-29T03:45:26.322Z,99902.76
2023-03-29T03:47:54.241Z,99902.10
2023-03-29T03:50:21.951Z,99901.92
2023-03-29T03:52:49.627Z,99906.10
2023-03-29T03:55:17.993Z,99908.64
2023-03-29T03:57:45.919Z,99912.91
2023-03-29T04:00:19.983Z,99908.04
2023-03-29T04:02:48.482Z,99909.70
2023-03-29T04:05:17.339Z,99912.34
2023-03-29T04:07:45.001Z,99914.02
2023-03-29T04:10:12.764Z,99908.61
2023-03-29T04:12:40.531Z,99914.35
2023-03-29T04:15:08.902Z,99912.48
2023-03-29T04:17:37.351Z,99910.58
2023-03-29T04:20:12.798Z,99913.38
2023-03-29T04:22:41.344Z,99909.58
2023-03-29T04:25:10.571Z,99914.20
2023-03-29T04:27:38.412Z,99913.61
2023-03-29T04:30:07.472Z,99915.33
2023-03-29T04:32:35.253Z,99912.71
2023-03-29T04:35:04.955Z,99912.45
2023-03-29T04:37:32.714Z,99914.66
2023-03-29T04:40:09.208Z,99913.10
2023-03-29T04:42:37.640Z,99905.97
2023-03-29T04:45:07.396Z,99904.55
2023-03-29T04:47:36.723Z,99908.20
2023-03-29T04:50:04.535Z,99909.84
2023-03-29T04:52:33.561Z,99908.17
2023-03-29T04:55:01.806Z,99916.11
2023-03-29T04:57:29.570Z,99913.71
2023-03-29T04:59:57.336Z,99915.16
2023-03-29T05:02:25.141Z,99912.01
2023-03-29T05:04:52.864Z,99912.36
2023-03-29T05:07:20.626Z,99908.59
2023-03-29T05:09:48.797Z,99909.64
2023-03-29T05:12:16.561Z,99907.39
2023-03-29T05:14:44.237Z,99911.35
2023-03-29T05:17:11.989Z,99911.98
2023-03-29T05:19:39.761Z,99911.48
2023-03-29T05:22:07.731Z,99917.52
2023-03-29T05:24:35.513Z,99919.17
2023-03-29T05:27:03.971Z,99917.42
2023-03-29T05:29:34.389Z,99917.41
2023-03-29T05:32:02.198Z,99914.79
2023-03-29T05:34:31.659Z,99915.05
2023-03-29T05:36:59.731Z,99916.90
2023-03-29T05:39:27.491Z,99916.73
2023-03-29T05:41:55.254Z,99924.48
2023-03-29T05:44:23.019Z,99926.90
2023-03-29T05:46:50.893Z,99929.62
2023-03-29T05:49:18.865Z,99931.50
2023-03-29T05:51:46.622Z,99931.02
2023-03-29T05:54:15.304Z,99932.75
2023-03-29T05:56:43.096Z,99932.20
2023-03-29T05:59:10.835Z,99937.91
2023-03-29T06:01:40.234Z,99936.90
2023-03-29T06:04:08.087Z,99940.73
2023-03-29T06:06:36.050Z,99944.39
2023-03-29T06:09:04.347Z,99939.23
2023-03-29T06:11:33.240Z,99939.11
2023-03-29T06:14:02.640Z,99937.56
2023-03-29T06:16:30.437Z,99941.20
2023-03-29T06:18:58.475Z,99941.64
2023-03-29T06:21:27.468Z,99945.73
2023-03-29T06:23:55.136Z,99945.23
2023-03-29T06:26:23.311Z,99943.91
2023-03-29T06:28:52.386Z,99940.67
2023-03-29T06:31:21.293Z,99942.67
2023-03-29T06:33:49.773Z,99936.62
2023-03-29T06:36:17.571Z,99940.91
2023-03-29T06:38:46.222Z,99944.83
2023-03-29T06:41:15.118Z,99944.07
2023-03-29T06:43:42.876Z,99941.98
2023-03-29T06:46:12.563Z,99941.23
2023-03-29T06:48:41.195Z,99946.12
2023-03-29T06:51:08.946Z,99947.74
2023-03-29T06:53:37.007Z,99949.27
2023-03-29T06:56:05.505Z,99954.00
2023-03-29T06:58:33.254Z,99951.64
2023-03-29T07:01:02.574Z,99949.09
2023-03-29T07:03:30.632Z,99951.79
2023-03-29T07:06:01.454Z,99948.25
2023-03-29T07:08:31.979Z,99953.21
2023-03-29T07:11:00.083Z,99953.61
2023-03-29T07:13:28.023Z,99956.75
2023-03-29T07:15:56.049Z,99950.57
2023-03-29T07:18:24.062Z,99949.20
2023-03-29T07:20:52.444Z,99953.73
2023-03-29T07:23:20.081Z,99950.66
2023-03-29T07:25:47.767Z,99950.59
2023-03-29T07:28:15.424Z,99955.02
2023-03-29T07:30:43.088Z,99956.27
2023-03-29T07:33:10.838Z,99957.97
2023-03-29T07:35:38.665Z,99954.67
2023-03-29T07:38:08.427Z,99952.40
2023-03-29T07:40:36.071Z,99952.12
2023-03-29T07:43:09.138Z,99951.98
2023-03-29T07:45:37.253Z,99952.67
2023-03-29T07:48:05.158Z,99950.34
2023-03-29T07:50:32.990Z,99949.92
2023-03-29T07:53:01.665Z,99951.64
2023-03-29T07:55:29.426Z,99955.56
2023-03-29T07:57:57.092Z,99956.94
2023-03-29T08:00:25.221Z,99953.45
2023-03-29T08:02:53.263Z,99954.44
2023-03-29T08:05:29.059Z,99953.22
2023-03-29T08:08:01.562Z,99950.14
2023-03-29T08:10:29.220Z,99953.81
2023-03-29T08:12:58.420Z,99955.14
2023-03-29T08:15:26.800Z,99950.88
2023-03-29T08:17:54.701Z,99943.23
2023-03-29T08:20:22.540Z,99943.51
2023-03-29T08:22:50.165Z,99948.11
2023-03-29T08:25:17.959Z,99942.28
2023-03-29T08:27:45.625Z,99934.46
2023-03-29T08:30:15.750Z,99936.99
2023-03-29T08:32:43.680Z,99930.96
2023-03-29T08:35:11.480Z,99923.23
2023-03-29T08:37:39.346Z,99921.04
2023-03-29T08:40:07.105Z,99919.61
2023-03-29T08:42:34.815Z,99919.48
2023-03-29T08:45:03.047Z,99919.40
2023-03-29T08:47:31.342Z,99915.86
2023-03-29T08:49:59.391Z,99917.71
2023-03-29T08:52:27.328Z,99915.61
2023-03-29T08:54:56.141Z,99915.42
2023-03-29T08:57:24.061Z,99915.70
2023-03-29T08:59:51.979Z,99911.63
2023-03-29T09:02:19.680Z,99912.38
2023-03-29T09:04:49.127Z,99910.77
2023-03-29T09:07:17.216Z,99909.98
2023-03-29T09:09:45.181Z,99909.95
2023-03-29T09:12:13.355Z,99908.21
2023-03-29T09:14:41.231Z,99907.59
2023-03-29T09:17:08.990Z,99909.30
2023-03-29T09:19:36.657Z,99906.95
2023-03-29T09:22:04.617Z,99905.09
2023-03-29T09:24:32.687Z,99902.26
2023-03-29T09:27:00.458Z,99896.98
2023-03-29T09:29:28.215Z,99898.61
2023-03-29T09:31:56.666Z,99904.35
2023-03-29T09:34:24.431Z,99905.34
2023-03-29T09:36:52.682Z,99906.42
2023-03-29T09:39:23.367Z,99901.58
2023-03-29T09:41:51.032Z,99899.13
2023-03-29T09:44:30.138Z,99899.41
2023-03-29T09:46:58.640Z,99896.16
2023-03-29T09:49:26.405Z,99903.53
2023-03-29T09:51:54.576Z,99897.36
2023-03-29T09:54:22.446Z,99895.59
2023-03-29T09:56:50.262Z,99892.39
2023-03-29T09:59:18.080Z,99888.89
2023-03-29T10:01:46.006Z,99885.25
2023-03-29T10:04:13.851Z,99882.23
2023-03-29T10:06:41.572Z,99878.75
2023-03-29T10:09:09.339Z,99876.73
2023-03-29T10:11:37.212Z,99872.20
2023-03-29T10:14:04.979Z,99874.70
2023-03-29T10:16:32.831Z,99871.98
2023-03-29T10:19:00.598Z,99864.34
2023-03-29T10:21:28.222Z,99863.61
2023-03-29T10:23:55.922Z,99856.88
2023-03-29T10:26:24.094Z,99857.42
2023-03-29T10:28:51.859Z,99863.86
2023-03-29T10:31:19.746Z,99854.89
2023-03-29T10:33:47.492Z,99853.53
2023-03-29T10:36:15.646Z,99851.52
2023-03-29T10:38:43.425Z,99852.30
2023-03-29T10:41:11.207Z,99848.15
2023-03-29T10:43:52.778Z,99843.56
2023-03-29T10:46:21.004Z,99843.67
2023-03-29T10:48:49.234Z,99839.80
2023-03-29T10:51:17.092Z,99834.55
2023-03-29T10:53:44.860Z,99838.95
2023-03-29T10:56:12.936Z,99836.08
2023-03-29T10:58:40.694Z,99836.11
2023-03-29T11:01:08.377Z,99835.32
2023-03-29T11:03:36.277Z,99822.92
2023-03-29T11:06:04.498Z,99831.42
2023-03-29T11:08:32.214Z,99822.94
2023-03-29T11:11:00.018Z,99822.05
2023-03-29T11:13:28.094Z,99814.37
2023-03-29T11:15:56.007Z,99816.27
2023-03-29T11:18:23.835Z,99807.68
2023-03-29T11:20:52.103Z,99813.77
2023-03-29T11:23:19.765Z,99811.02
2023-03-29T11:25:47.629Z,99812.31
2023-03-29T11:28:15.395Z,99807.94
2023-03-29T11:30:43.160Z,99799.23
2023-03-29T11:33:10.831Z,99793.23
2023-03-29T11:35:38.648Z,99794.95
2023-03-29T11:38:06.961Z,99789.30
2023-03-29T11:40:36.400Z,99785.24
2023-03-29T11:43:04.744Z,99786.20
2023-03-29T11:45:32.715Z,99786.06
2023-03-29T11:48:00.531Z,99784.40
2023-03-29T11:50:28.343Z,99777.59
2023-03-29T11:52:56.209Z,99777.79
2023-03-29T11:55:23.977Z,99778.88
2023-03-29T11:57:51.741Z,99773.80
2023-03-29T12:00:19.910Z,99775.89
2023-03-29T12:02:48.447Z,99772.13
2023-03-29T12:05:17.900Z,99768.33
2023-03-29T12:07:45.863Z,99768.84
2023-03-29T12:10:13.630Z,99772.42
2023-03-29T12:12:41.293Z,99764.12
2023-03-29T12:15:09.361Z,99762.15
2023-03-29T12:17:37.395Z,99761.90
2023-03-29T12:20:05.337Z,99761.64
2023-03-29T12:22:33.879Z,99758.46
2023-03-29T12:25:01.652Z,99754.30
2023-03-29T12:27:29.410Z,99755.23
2023-03-29T12:29:57.174Z,99754.48
2023-03-29T12:32:24.878Z,99750.04
2023-03-29T12:34:52.704Z,99753.64
2023-03-29T12:37:21.185Z,99759.34
2023-03-29T12:39:49.362Z,99753.98
2023-03-29T12:42:17.278Z,99754.21
2023-03-29T12:44:44.992Z,99746.30
2023-03-29T12:47:12.652Z,99743.52
2023-03-29T12:49:40.315Z,99742.25
2023-03-29T12:52:07.978Z,99738.30
2023-03-29T12:54:35.860Z,99740.39
2023-03-29T12:57:03.543Z,99737.17
2023-03-29T12:59:31.370Z,99734.34
2023-03-29T13:01:59.071Z,99733.02
2023-03-29T13:04:27.208Z,99733.64
2023-03-29T13:06:56.372Z,99735.72
2023-03-29T13:09:24.077Z,99726.59
2023-03-29T13:11:51.852Z,99727.09
2023-03-29T13:14:19.603Z,99725.42
2023-03-29T13:16:47.361Z,99723.41
2023-03-29T13:19:15.023Z,99717.20
2023-03-29T13:21:42.784Z,99714.30
2023-03-29T13:24:10.441Z,99710.52
2023-03-29T13:26:38.108Z,99706.02
2023-03-29T13:29:05.766Z,99703.71
2023-03-29T13:31:33.469Z,99702.93
2023-03-29T13:34:01.508Z,99704.36
2023-03-29T13:36:30.747Z,99698.27
2023-03-29T13:39:00.406Z,99693.87
2023-03-29T13:41:28.986Z,99697.54
2023-03-29T13:43:56.752Z,99695.00
2023-03-29T13:46:24.486Z,99689.86
2023-03-29T13:48:53.972Z,99688.51
2023-03-29T13:51:21.997Z,99690.81
2023-03-29T13:53:49.652Z,99687.54
2023-03-29T13:56:17.320Z,99688.05
2023-03-29T13:58:45.079Z,99686.80
2023-03-29T14:01:12.989Z,99681.59
2023-03-29T14:03:40.713Z,99678.13
2023-03-29T14:06:08.370Z,99680.75
2023-03-29T14:08:36.122Z,99675.55
2023-03-29T14:11:03.909Z,99679.25
2023-03-29T14:13:31.661Z,99673.73
2023-03-29T14:16:00.286Z,99670.59
2023-03-29T14:18:28.108Z,99668.91
2023-03-29T14:20:55.872Z,99663.02
2023-03-29T14:23:23.644Z,99655.40
2023-03-29T14:25:51.495Z,99656.11
2023-03-29T14:28:19.275Z,99651.45
2023-03-29T14:30:47.445Z,99652.01
2023-03-29T14:33:15.104Z,99648.27
2023-03-29T14:35:42.931Z,99647.63
2023-03-29T14:38:10.628Z,99645.42
2023-03-29T14:40:38.291Z,99648.38
2023-03-29T14:43:06.081Z,99648.04
2023-03-29T14:45:33.826Z,99649.30
2023-03-29T14:48:01.833Z,99652.30
2023-03-29T14:50:29.653Z,99649.05
2023-03-29T14:52:57.420Z,99650.16
2023-03-29T14:55:25.170Z,99648.11
2023-03-29T14:57:52.947Z,99644.86
2023-03-29T15:00:21.427Z,99640.89
2023-03-29T15:02:49.243Z,99635.19
2023-03-29T15:05:17.162Z,99632.77
2023-03-29T15:07:45.030Z,99628.29
2023-03-29T15:10:12.686Z,99626.19
2023-03-29T15:12:40.350Z,99630.36
2023-03-29T15:15:10.679Z,99631.02
2023-03-29T15:17:50.314Z,99625.42
2023-03-29T15:20:21.602Z,99632.88
2023-03-29T15:22:49.539Z,99630.55
2023-03-29T15:25:17.502Z,99634.67
2023-03-29T15:27:45.263Z,99635.50
2023-03-29T15:30:13.031Z,99628.84
2023-03-29T15:32:41.780Z,99629.86
2023-03-29T15:35:09.788Z,99627.77
2023-03-29T15:37:37.960Z,99623.74
2023-03-29T15:40:09.931Z,99619.20
2023-03-29T15:42:37.787Z,99617.59
2023-03-29T15:45:06.652Z,99625.89
2023-03-29T15:47:34.377Z,99627.27
2023-03-29T15:50:02.210Z,99624.95
2023-03-29T15:52:29.979Z,99623.52
2023-03-29T15:54:57.731Z,99620.51
2023-03-29T15:57:25.708Z,99621.17
2023-03-29T15:59:53.582Z,99619.77
2023-03-29T16:02:21.910Z,99619.56
2023-03-29T16:04:49.815Z,99619.99
2023-03-29T16:07:17.474Z,99627.05
2023-03-29T16:09:46.060Z,99622.80
2023-03-29T16:12:13.718Z,99618.23
2023-03-29T16:14:43.036Z,99619.22
2023-03-29T16:17:11.089Z,99617.63
2023-03-29T16:19:38.859Z,99624.40
2023-03-29T16:22:07.693Z,99620.38
2023-03-29T16:24:35.820Z,99619.45
2023-03-29T16:27:04.001Z,99622.33
2023-03-29T16:29:31.994Z,99617.20
2023-03-29T16:32:00.221Z,99615.38
2023-03-29T16:34:28.529Z,99617.56
2023-03-29T16:36:56.171Z,99614.02
2023-03-29T16:39:23.943Z,99614.81
2023-03-29T16:41:51.698Z,99614.03
2023-03-29T16:44:21.776Z,99610.16
2023-03-29T16:46:51.835Z,99609.41
2023-03-29T16:49:19.744Z,99604.66
2023-03-29T16:51:48.081Z,99601.12
2023-03-29T16:54:17.376Z,99596.52
2023-03-29T16:56:45.175Z,99596.27
2023-03-29T16:59:12.906Z,99598.80
2023-03-29T17:01:40.928Z,99598.69
2023-03-29T17:04:09.015Z,99597.70
2023-03-29T17:06:37.233Z,99601.55
2023-03-29T17:09:06.258Z,99598.81
2023-03-29T17:11:34.307Z,99601.64
2023-03-29T17:14:02.156Z,99599.09
2023-03-29T17:16:29.850Z,99600.86
2023-03-29T17:18:58.709Z,99599.33
2023-03-29T17:21:27.490Z,99600.70
2023-03-29T17:23:55.670Z,99604.04
2023-03-29T17:26:23.325Z,99604.26
2023-03-29T17:28:51.094Z,99608.80
2023-03-29T17:31:19.896Z,99611.27
2023-03-29T17:33:50.611Z,99616.35
2023-03-29T17:36:19.340Z,99614.33
2023-03-29T17:38:48.973Z,99615.38
2023-03-29T17:41:16.678Z,99620.30
2023-03-29T17:43:44.805Z,99619.00
2023-03-29T17:46:12.537Z,99622.23
2023-03-29T17:48:40.376Z,99624.95
2023-03-29T17:51:08.033Z,99626.47
2023-03-29T17:53:35.706Z,99626.93
2023-03-29T17:56:04.434Z,99629.95
2023-03-29T17:58:33.074Z,99631.36
2023-03-29T18:01:01.578Z,99625.89
2023-03-29T18:03:29.249Z,99624.60
2023-03-29T18:05:56.979Z,99625.73
2023-03-29T18:08:24.597Z,99630.48
2023-03-29T18:10:52.301Z,99630.73
2023-03-29T18:13:25.634Z,99631.84
2023-03-29T18:15:53.353Z,99630.01
2023-03-29T18:18:21.029Z,99638.91
2023-03-29T18:20:48.783Z,99637.80
2023-03-29T18:23:16.442Z,99643.04
2023-03-29T18:25:44.106Z,99639.43
2023-03-29T18:28:11.972Z,99638.45
2023-03-29T18:30:39.739Z,99639.75
2023-03-29T18:33:07.552Z,99637.14
2023-03-29T18:35:35.285Z,99637.54
2023-03-29T18:38:03.644Z,99637.79
2023-03-29T18:40:31.308Z,99640.61
2023-03-29T18:42:58.967Z,99643.63
2023-03-29T18:45:26.734Z,99643.23
2023-03-29T18:47:54.441Z,99641.48
2023-03-29T18:50:22.569Z,99642.29
2023-03-29T18:52:50.230Z,99648.64
2023-03-29T18:55:17.891Z,99644.09
2023-03-29T18:57:45.692Z,99646.11
2023-03-29T19:00:13.422Z,99637.61
2023-03-29T19:02:41.272Z,99636.20
2023-03-29T19:05:09.179Z,99633.73
2023-03-29T19:07:37.020Z,99635.77
2023-03-29T19:10:05.163Z,99634.53
2023-03-29T19:12:33.469Z,99634.84
2023-03-29T19:15:01.234Z,99637.41
2023-03-29T19:17:29.015Z,99632.54
2023-03-29T19:19:56.976Z,99633.34
2023-03-29T19:22:24.617Z,99630.66
2023-03-29T19:24:52.393Z,99629.95
2023-03-29T19:27:20.158Z,99629.09
2023-03-29T19:29:48.437Z,99626.84
2023-03-29T19:32:16.408Z,99628.38
2023-03-29T19:34:44.077Z,99623.15
2023-03-29T19:37:11.837Z,99622.07
2023-03-29T19:39:41.229Z,99621.53
2023-03-29T19:42:08.885Z,99617.90
2023-03-29T19:44:38.392Z,99615.65
2023-03-29T19:47:06.212Z,99615.49
2023-03-29T19:49:38.422Z,99614.98
2023-03-29T19:52:06.492Z,99612.38
2023-03-29T19:54:34.182Z,99610.62
2023-03-29T19:57:02.976Z,99606.59
2023-03-29T19:59:31.622Z,99602.56
2023-03-29T20:01:59.520Z,99607.02
2023-03-29T20:04:29.014Z,99602.85
2023-03-29T20:06:57.790Z,99600.59
2023-03-29T20:09:25.450Z,99598.13
2023-03-29T20:11:53.212Z,99597.91
2023-03-29T20:14:20.975Z,99602.17
2023-03-29T20:16:50.933Z,99601.45
2023-03-29T20:19:19.476Z,99605.41
2023-03-29T20:21:50.923Z,99606.23
2023-03-29T20:24:19.102Z,99606.23
2023-03-29T20:26:46.725Z,99606.85
2023-03-29T20:29:15.551Z,99606.83
2023-03-29T20:31:43.273Z,99610.04
2023-03-29T20:34:11.383Z,99610.33
2023-03-29T20:36:40.551Z,99610.11
2023-03-29T20:39:08.548Z,99606.09
2023-03-29T20:41:38.464Z,99612.44
2023-03-29T20:44:06.437Z,99609.83
2023-03-29T20:46:34.374Z,99606.85
2023-03-29T20:49:02.280Z,99607.52
2023-03-29T20:51:33.108Z,99603.70
2023-03-29T20:54:02.782Z,99601.27
2023-03-29T20:56:30.686Z,99599.67
2023-03-29T20:58:59.058Z,99595.71
2023-03-29T21:01:28.085Z,99593.44
2023-03-29T21:03:55.987Z,99592.61
2023-03-29T21:06:24.603Z,99590.86
2023-03-29T21:08:52.760Z,99587.73
2023-03-29T21:11:20.444Z,99589.62
2023-03-29T21:13:48.211Z,99589.80
2023-03-29T21:16:15.987Z,99585.70
2023-03-29T21:18:44.046Z,99578.98
2023-03-29T21:21:11.700Z,99585.85
2023-03-29T21:23:39.468Z,99585.48
2023-03-29T21:26:08.052Z,99586.48
2023-03-29T21:28:36.023Z,99581.63
2023-03-29T21:31:04.964Z,99577.63
2023-03-29T21:33:33.090Z,99576.38
2023-03-29T21:36:01.293Z,99572.38
2023-03-29T21:38:29.022Z,99572.02
2023-03-29T21:40:58.242Z,99576.34
2023-03-29T21:43:25.954Z,99578.29
2023-03-29T21:45:53.844Z,99576.91
2023-03-29T21:48:21.507Z,99577.27
2023-03-29T21:50:49.683Z,99569.34
2023-03-29T21:53:18.478Z,99567.75
2023-03-29T21:55:46.234Z,99565.80
2023-03-29T21:58:13.895Z,99563.90
2023-03-29T22:00:41.923Z,99563.35
2023-03-29T22:03:09.696Z,99559.56
2023-03-29T22:05:37.501Z,99558.33
2023-03-29T22:08:05.267Z,99561.11
2023-03-29T22:10:33.747Z,99565.73
2023-03-29T22:13:01.505Z,99557.63
2023-03-29T22:15:35.653Z,99556.42
2023-03-29T22:18:03.415Z,99555.55
2023-03-29T22:20:31.249Z,99562.45
2023-03-29T22:22:58.910Z,99556.92
2023-03-29T22:25:27.289Z,99557.63
2023-03-29T22:27:54.952Z,99556.41
2023-03-29T22:30:23.039Z,99559.02
2023-03-29T22:32:51.018Z,99559.54
2023-03-29T22:35:18.956Z,99564.55
2023-03-29T22:37:46.618Z,99562.14
2023-03-29T22:40:14.280Z,99557.48
2023-03-29T22:42:41.958Z,99553.83
2023-03-29T22:45:09.708Z,99559.48
2023-03-29T22:47:37.538Z,99559.60
2023-03-29T22:50:05.233Z,99558.55
2023-03-29T22:52:33.003Z,99556.27
2023-03-29T22:55:00.676Z,99551.26
2023-03-29T22:57:28.445Z,99550.20
2023-03-29T22:59:56.288Z,99545.20
2023-03-29T23:02:24.504Z,99546.40
2023-03-29T23:04:52.360Z,99550.52
2023-03-29T23:07:20.198Z,99551.69
2023-03-29T23:09:47.855Z,99549.59
2023-03-29T23:12:15.726Z,99543.66
2023-03-29T23:14:45.431Z,99546.52
2023-03-29T23:17:13.602Z,99547.02
2023-03-29T23:19:41.790Z,99547.48
2023-03-29T23:22:09.440Z,99541.54
2023-03-29T23:24:37.101Z,99543.75
2023-03-29T23:27:05.682Z,99542.35
2023-03-29T23:29:34.678Z,99542.83
2023-03-29T23:32:02.343Z,99540.16
2023-03-29T23:34:30.315Z,99538.00
2023-03-29T23:36:57.969Z,99538.30
2023-03-29T23:39:25.633Z,99536.52
2023-03-29T23:41:53.396Z,99535.55
2023-03-29T23:44:21.056Z,99530.45
2023-03-29T23:46:48.854Z,99522.77
2023-03-29T23:49:17.404Z,99519.08
2023-03-29T23:51:45.166Z,99512.31
2023-03-29T23:54:13.137Z,99513.80
2023-03-29T23:56:40.887Z,99508.94
2023-03-29T23:59:09.091Z,99497.48
